Time;durP1;ratioP1;P1;durP2;ratioP2;P2;SDS_P1;SDS_P2;PMS_P1;PMS_P2;Temp;Humidity;BMP_temperature;BMP_pressure;BME280_temperature;BME280_humidity;BME280_pressure;Samples;Min_cycle;Max_cycle;Signal;HPM_P1;HPM_P2
2021/05/13 00:00:09;;;;;;;14.50;11.00;;;12.60;99.90;;;;;;6212739;23;20406;-89
2021/05/13 00:02:35;;;;;;;17.30;14.90;;;12.60;99.90;;;;;;6198778;23;20423;-89
2021/05/13 00:05:01;;;;;;;15.50;13.20;;;12.60;99.90;;;;;;6190499;23;20430;-89
2021/05/13 00:07:28;;;;;;;13.63;11.87;;;12.60;99.90;;;;;;6190420;23;20477;-89
2021/05/13 00:09:54;;;;;;;15.40;12.30;;;12.60;99.90;;;;;;6188857;23;20461;-89
2021/05/13 00:12:36;;;;;;;16.77;11.30;;;12.60;99.90;;;;;;6189511;23;20411;-89
2021/05/13 00:15:06;;;;;;;14.60;12.13;;;12.60;99.90;;;;;;6186617;23;20879;-89
2021/05/13 00:17:32;;;;;;;15.20;11.00;;;12.50;99.90;;;;;;6189180;23;20466;-89
2021/05/13 00:19:59;;;;;;;11.90;10.70;;;12.50;99.90;;;;;;6203043;23;20453;-89
2021/05/13 00:22:25;;;;;;;12.07;10.20;;;12.60;99.90;;;;;;6190698;23;20437;-89
2021/05/13 00:24:51;;;;;;;14.93;12.40;;;12.60;99.90;;;;;;6186903;23;20522;-89
2021/05/13 00:27:17;;;;;;;14.50;12.43;;;12.50;99.90;;;;;;6187115;23;20421;-89
2021/05/13 00:29:44;;;;;;;17.27;12.83;;;12.50;99.90;;;;;;6187390;23;20446;-89
2021/05/13 00:32:11;;;;;;;16.47;12.17;;;12.50;99.90;;;;;;6188831;23;20421;-89
2021/05/13 00:34:37;;;;;;;13.90;10.83;;;12.50;99.90;;;;;;6188940;23;20394;-90
2021/05/13 00:37:04;;;;;;;15.17;11.63;;;12.40;99.90;;;;;;6187675;23;20500;-89
2021/05/13 00:39:30;;;;;;;12.70;11.17;;;12.50;99.90;;;;;;6188176;23;20507;-89
2021/05/13 00:41:56;;;;;;;12.23;9.93;;;12.50;99.90;;;;;;6187652;23;20482;-91
2021/05/13 00:44:23;;;;;;;11.43;10.33;;;12.40;99.90;;;;;;6189320;23;20411;-89
2021/05/13 00:46:49;;;;;;;13.80;11.93;;;12.40;99.90;;;;;;6188476;23;20426;-89
2021/05/13 00:49:17;;;;;;;12.87;10.43;;;12.40;99.90;;;;;;6190238;23;20414;-89
2021/05/13 00:51:45;;;;;;;14.63;11.37;;;12.40;99.90;;;;;;6213399;23;20406;-88
2021/05/13 00:54:12;;;;;;;14.53;11.83;;;12.40;99.90;;;;;;6214388;23;20425;-88
2021/05/13 00:56:39;;;;;;;14.37;11.03;;;12.40;99.90;;;;;;6206856;23;20412;-89
2021/05/13 00:59:07;;;;;;;13.57;11.00;;;12.40;99.90;;;;;;6214382;23;20423;-89
2021/05/13 01:01:48;;;;;;;14.30;10.77;;;12.40;99.90;;;;;;6203887;23;20471;-89
2021/05/13 01:04:16;;;;;;;13.07;10.70;;;12.40;99.90;;;;;;6212878;23;20383;-88
2021/05/13 01:06:43;;;;;;;10.90;8.67;;;12.40;99.90;;;;;;6211888;23;20459;-89
2021/05/13 01:09:11;;;;;;;11.80;9.30;;;12.30;99.90;;;;;;6197168;23;20414;-89
2021/05/13 01:11:40;;;;;;;12.30;10.10;;;12.30;99.90;;;;;;6197133;23;20465;-89
2021/05/13 01:14:15;;;;;;;13.63;10.23;;;12.30;99.90;;;;;;6213233;23;20576;-88
2021/05/13 01:16:51;;;;;;;10.30;9.30;;;12.30;99.90;;;;;;6211971;23;20438;-89
2021/05/13 01:19:19;;;;;;;12.50;9.30;;;12.40;99.90;;;;;;6199503;23;20430;-89
2021/05/13 01:21:46;;;;;;;10.33;8.90;;;12.30;99.90;;;;;;6191949;23;20429;-89
2021/05/13 01:24:12;;;;;;;12.37;11.17;;;12.30;99.90;;;;;;6193496;23;20459;-89
2021/05/13 01:26:42;;;;;;;13.77;10.73;;;12.40;99.90;;;;;;6211566;23;20414;-89
2021/05/13 01:29:09;;;;;;;14.83;11.37;;;12.40;99.90;;;;;;6192978;23;20413;-89
2021/05/13 01:31:35;;;;;;;13.07;10.97;;;12.40;99.90;;;;;;6189900;23;20898;-89
2021/05/13 01:34:04;;;;;;;18.83;14.23;;;12.30;99.90;;;;;;6200359;23;20478;-89
2021/05/13 01:36:30;;;;;;;17.40;11.37;;;12.30;99.90;;;;;;6201515;23;20527;-89
2021/05/13 01:38:58;;;;;;;13.77;12.23;;;12.30;99.90;;;;;;6191289;23;21038;-89
2021/05/13 01:41:24;;;;;;;13.50;12.03;;;12.20;99.90;;;;;;6192653;23;20797;-91
2021/05/13 01:43:51;;;;;;;14.63;10.83;;;12.20;99.90;;;;;;6191115;23;20888;-89
2021/05/13 01:46:17;;;;;;;13.03;11.70;;;12.20;99.90;;;;;;6195560;23;20431;-89
2021/05/13 01:48:44;;;;;;;15.53;11.30;;;12.20;99.90;;;;;;6190999;23;20400;-90
2021/05/13 01:51:14;;;;;;;14.60;11.13;;;12.20;99.90;;;;;;6199612;23;20417;-90
2021/05/13 01:53:41;;;;;;;13.83;11.33;;;12.10;99.90;;;;;;6188945;23;20394;-89
2021/05/13 01:56:11;;;;;;;14.53;11.97;;;12.10;99.90;;;;;;6195322;23;20414;-89
2021/05/13 01:58:38;;;;;;;12.10;11.00;;;12.10;99.90;;;;;;6189965;23;20421;-88
2021/05/13 02:01:05;;;;;;;18.80;11.63;;;12.10;99.90;;;;;;6212575;23;20397;-89
2021/05/13 02:03:33;;;;;;;16.47;11.47;;;12.10;99.90;;;;;;6199796;23;20426;-89
2021/05/13 02:06:03;;;;;;;12.67;11.37;;;12.10;99.90;;;;;;6194205;23;20434;-90
2021/05/13 02:08:31;;;;;;;12.67;11.37;;;12.00;99.90;;;;;;6191287;23;20422;-89
2021/05/13 02:11:02;;;;;;;13.77;12.50;;;12.00;99.90;;;;;;6204162;23;20414;-89
2021/05/13 02:13:33;;;;;;;12.37;11.07;;;12.00;99.90;;;;;;6211892;23;20386;-89
2021/05/13 02:15:59;;;;;;;17.33;12.50;;;12.00;99.90;;;;;;6206933;23;20422;-89
2021/05/13 02:18:26;;;;;;;13.87;12.30;;;11.90;99.90;;;;;;6208614;23;20460;-88
2021/05/13 02:20:53;;;;;;;17.43;12.27;;;11.80;99.90;;;;;;6193537;23;20417;-89
2021/05/13 02:23:22;;;;;;;13.60;11.83;;;11.80;99.90;;;;;;6192528;23;20435;-89
2021/05/13 02:25:50;;;;;;;14.07;12.47;;;11.80;99.90;;;;;;6205749;23;20406;-89
2021/05/13 02:28:17;;;;;;;13.70;11.20;;;11.80;99.90;;;;;;6203862;23;20419;-89
2021/05/13 02:30:44;;;;;;;13.30;11.17;;;11.80;99.90;;;;;;6194245;23;20398;-89
2021/05/13 02:33:11;;;;;;;13.47;12.07;;;11.80;99.90;;;;;;6189760;23;20468;-90
2021/05/13 02:35:38;;;;;;;12.37;11.13;;;11.80;99.90;;;;;;6192535;23;20505;-87
2021/05/13 02:38:05;;;;;;;13.27;10.93;;;11.80;99.90;;;;;;6210287;23;20446;-89
2021/05/13 02:40:31;;;;;;;16.10;11.90;;;11.80;99.90;;;;;;6210688;23;20419;-89
2021/05/13 02:42:59;;;;;;;11.80;10.60;;;11.80;99.90;;;;;;6204475;23;20477;-90
2021/05/13 02:45:25;;;;;;;11.20;9.80;;;11.90;99.90;;;;;;6204055;23;20468;-89
2021/05/13 02:47:52;;;;;;;10.80;8.83;;;11.80;99.90;;;;;;6207687;23;20406;-89
2021/05/13 02:50:19;;;;;;;11.07;9.97;;;11.80;99.90;;;;;;6207352;23;20410;-89
2021/05/13 02:52:45;;;;;;;11.17;9.57;;;11.80;99.90;;;;;;6198025;23;20402;-89
2021/05/13 02:55:13;;;;;;;11.27;10.17;;;11.80;99.90;;;;;;6190974;23;20431;-88
2021/05/13 02:57:40;;;;;;;11.00;10.10;;;11.70;99.90;;;;;;6190481;23;20881;-89
2021/05/13 03:00:23;;;;;;;9.70;8.80;;;11.80;99.90;;;;;;6193662;23;20418;-89
2021/05/13 03:02:49;;;;;;;10.23;9.20;;;11.80;99.90;;;;;;6209722;23;20500;-89
2021/05/13 03:05:19;;;;;;;10.73;9.57;;;11.80;99.90;;;;;;6211097;23;20411;-88
2021/05/13 03:07:47;;;;;;;10.90;8.93;;;11.80;99.90;;;;;;6204171;23;20425;-90
2021/05/13 03:10:20;;;;;;;10.00;8.63;;;11.80;99.90;;;;;;6192945;23;20398;-89
2021/05/13 03:12:49;;;;;;;15.17;9.70;;;11.80;99.90;;;;;;6206392;23;20426;-89
2021/05/13 03:15:19;;;;;;;13.20;9.87;;;11.80;99.90;;;;;;6199997;23;20423;-89
2021/05/13 03:17:47;;;;;;;10.50;9.40;;;11.80;99.90;;;;;;6192291;23;20433;-89
2021/05/13 03:20:18;;;;;;;11.20;9.23;;;11.80;99.90;;;;;;6195705;23;20430;-89
2021/05/13 03:22:48;;;;;;;13.37;10.30;;;11.80;99.90;;;;;;6195748;23;20453;-88
2021/05/13 03:25:15;;;;;;;11.30;10.13;;;11.80;99.90;;;;;;6188939;23;20418;-89
2021/05/13 03:27:45;;;;;;;9.70;8.70;;;11.80;99.90;;;;;;6186473;23;20755;-90
2021/05/13 03:30:13;;;;;;;9.57;8.67;;;11.80;99.90;;;;;;6189305;23;20494;-90
2021/05/13 03:32:39;;;;;;;10.10;8.40;;;11.80;99.90;;;;;;6187504;23;20414;-89
2021/05/13 03:35:07;;;;;;;9.40;8.37;;;11.90;99.90;;;;;;6208980;23;20426;-89
2021/05/13 03:37:33;;;;;;;13.60;8.57;;;11.90;99.90;;;;;;6211456;23;20398;-89
2021/05/13 03:40:03;;;;;;;11.63;7.70;;;11.90;99.90;;;;;;6194191;23;20473;-89
2021/05/13 03:42:30;;;;;;;11.07;8.00;;;11.90;99.90;;;;;;6212924;23;20464;-89
2021/05/13 03:44:58;;;;;;;11.10;9.50;;;11.90;99.90;;;;;;6209560;23;20410;-90
2021/05/13 03:47:25;;;;;;;11.67;9.40;;;12.00;99.90;;;;;;6192596;23;20417;-89
2021/05/13 03:49:51;;;;;;;14.17;10.27;;;12.00;99.90;;;;;;6189804;23;20426;-89
2021/05/13 03:52:18;;;;;;;10.30;9.30;;;12.00;99.90;;;;;;6191960;23;20425;-89
2021/05/13 03:54:44;;;;;;;12.33;9.17;;;12.00;99.90;;;;;;6190415;23;20729;-90
2021/05/13 03:57:14;;;;;;;11.07;9.10;;;11.90;99.90;;;;;;6200870;23;20379;-89
2021/05/13 03:59:42;;;;;;;14.63;9.53;;;11.90;99.90;;;;;;6196817;23;20418;-89
2021/05/13 04:02:21;;;;;;;10.43;9.43;;;11.90;99.90;;;;;;6187953;23;20994;-89
2021/05/13 04:04:48;;;;;;;12.00;10.87;;;11.90;99.90;;;;;;6186795;23;20393;-90
2021/05/13 04:07:14;;;;;;;14.27;12.97;;;11.90;99.90;;;;;;6208923;23;20402;-89
2021/05/13 04:09:43;;;;;;;14.60;13.17;;;11.80;99.90;;;;;;6213537;23;20379;-89
2021/05/13 04:12:12;;;;;;;16.00;14.37;;;11.80;99.90;;;;;;6213190;23;20395;-88
2021/05/13 04:14:38;;;;;;;14.83;13.10;;;11.80;99.90;;;;;;6211807;23;20390;-90
2021/05/13 04:17:07;;;;;;;16.67;14.90;;;11.70;99.90;;;;;;6199909;23;20920;-90
2021/05/13 04:19:36;;;;;;;15.83;14.23;;;11.60;99.90;;;;;;6196008;23;20488;-90
2021/05/13 04:22:03;;;;;;;15.10;13.67;;;11.70;99.90;;;;;;6209138;23;20472;-89
2021/05/13 04:24:30;;;;;;;14.20;13.00;;;11.70;99.90;;;;;;6214252;23;20449;-89
2021/05/13 04:26:56;;;;;;;14.90;12.20;;;11.70;99.90;;;;;;6215282;23;20457;-89
2021/05/13 04:29:24;;;;;;;12.73;11.43;;;11.70;99.90;;;;;;6214577;23;20477;-89
2021/05/13 04:31:50;;;;;;;12.33;11.07;;;11.70;99.90;;;;;;6213817;23;20418;-89
2021/05/13 04:34:18;;;;;;;18.90;12.43;;;11.70;99.90;;;;;;6206079;23;20414;-88
2021/05/13 04:36:45;;;;;;;13.10;11.80;;;11.70;99.90;;;;;;6196372;23;20537;-89
2021/05/13 04:39:11;;;;;;;12.13;10.80;;;11.70;99.90;;;;;;6210021;23;20381;-88
2021/05/13 04:41:39;;;;;;;12.27;11.00;;;11.80;99.90;;;;;;6204609;23;20443;-88
2021/05/13 04:44:07;;;;;;;12.70;11.50;;;11.80;99.90;;;;;;6193238;23;20398;-89
2021/05/13 04:46:35;;;;;;;11.83;10.63;;;11.90;99.90;;;;;;6194219;23;20426;-89
2021/05/13 04:49:17;;;;;;;12.70;11.23;;;12.00;99.90;;;;;;6210278;23;20423;-89
2021/05/13 04:51:46;;;;;;;13.17;11.53;;;12.10;99.90;;;;;;6210422;23;20421;-89
2021/05/13 04:54:17;;;;;;;14.67;12.37;;;12.20;99.90;;;;;;6196396;23;20465;-88
2021/05/13 04:56:44;;;;;;;12.60;10.30;;;12.30;99.90;;;;;;6191940;23;20513;-89
2021/05/13 04:59:11;;;;;;;11.63;10.27;;;12.40;99.90;;;;;;6190066;23;20376;-89
2021/05/13 05:01:39;;;;;;;10.83;9.93;;;12.50;99.90;;;;;;6192926;23;20436;-90
2021/05/13 05:04:05;;;;;;;10.90;9.80;;;12.90;99.90;;;;;;6210750;23;20402;-89
2021/05/13 05:06:33;;;;;;;10.93;9.90;;;13.30;99.90;;;;;;6205498;23;20425;-89
2021/05/13 05:08:59;;;;;;;10.00;9.03;;;13.80;99.90;;;;;;6189703;23;20488;-90
2021/05/13 05:11:26;;;;;;;10.07;9.10;;;14.30;99.90;;;;;;6194828;23;20419;-89
2021/05/13 05:13:57;;;;;;;10.47;8.43;;;14.70;99.90;;;;;;6203174;23;20401;-90
2021/05/13 05:16:25;;;;;;;8.50;7.70;;;15.10;99.90;;;;;;6192802;23;20441;-90
2021/05/13 05:18:53;;;;;;;9.97;7.70;;;15.20;99.90;;;;;;6189442;23;20809;-89
2021/05/13 05:21:19;;;;;;;8.10;7.40;;;15.50;99.90;;;;;;6189542;23;20417;-88
2021/05/13 05:23:46;;;;;;;12.13;7.67;;;15.80;99.90;;;;;;6190933;23;20929;-89
2021/05/13 05:26:12;;;;;;;7.77;6.97;;;15.80;99.90;;;;;;6194960;23;20500;-90
2021/05/13 05:28:39;;;;;;;11.63;8.50;;;16.10;99.90;;;;;;6189994;23;20422;-89
2021/05/13 05:31:05;;;;;;;8.90;8.10;;;16.50;99.90;;;;;;6189941;23;20424;-90
2021/05/13 05:33:32;;;;;;;7.90;7.20;;;16.80;99.90;;;;;;6188511;23;20499;-90
2021/05/13 05:36:02;;;;;;;9.33;7.93;;;16.80;99.40;;;;;;6187648;23;20443;-91
2021/05/13 05:38:28;;;;;;;8.60;7.80;;;16.60;99.10;;;;;;6198162;23;20407;-90
2021/05/13 05:40:55;;;;;;;9.07;8.17;;;16.00;99.30;;;;;;6204542;23;20417;-87
2021/05/13 05:43:21;;;;;;;8.83;8.10;;;15.60;99.90;;;;;;6191285;23;20445;-89
2021/05/13 05:45:48;;;;;;;8.30;7.60;;;15.40;99.90;;;;;;6187323;23;20410;-89
2021/05/13 05:48:14;;;;;;;9.77;7.67;;;15.70;99.90;;;;;;6188217;23;20406;-89
2021/05/13 05:50:42;;;;;;;9.17;8.27;;;16.30;99.90;;;;;;6188657;23;20398;-90
2021/05/13 05:53:10;;;;;;;7.93;7.23;;;17.00;99.60;;;;;;6188518;23;20421;-89
2021/05/13 05:55:38;;;;;;;7.13;6.53;;;17.60;98.10;;;;;;6190550;23;20423;-89
2021/05/13 05:58:04;;;;;;;8.43;6.37;;;18.10;96.80;;;;;;6187988;23;20758;-89
2021/05/13 06:00:31;;;;;;;6.77;6.17;;;18.60;95.70;;;;;;6189669;23;20446;-89
2021/05/13 06:02:58;;;;;;;8.40;5.97;;;19.20;94.20;;;;;;6191321;23;20985;-89
2021/05/13 06:05:24;;;;;;;8.60;7.10;;;19.50;92.90;;;;;;6194100;23;20511;-89
2021/05/13 06:07:50;;;;;;;7.10;6.50;;;19.80;92.00;;;;;;6191943;23;20745;-90
2021/05/13 06:10:19;;;;;;;7.67;7.00;;;20.10;91.10;;;;;;6200239;23;20425;-90
2021/05/13 06:12:45;;;;;;;11.40;6.90;;;20.00;90.90;;;;;;6209839;23;20464;-89
2021/05/13 06:15:14;;;;;;;6.23;5.63;;;20.50;91.00;;;;;;6211330;23;21013;-89
2021/05/13 06:17:41;;;;;;;7.30;6.47;;;21.00;89.20;;;;;;6208351;23;20411;-89
2021/05/13 06:20:09;;;;;;;6.93;6.30;;;21.50;88.00;;;;;;6214099;23;20403;-89
2021/05/13 06:22:35;;;;;;;6.33;5.73;;;21.70;85.00;;;;;;6209747;23;20510;-89
2021/05/13 06:25:01;;;;;;;7.57;6.33;;;22.10;83.90;;;;;;6212681;23;20487;-89
2021/05/13 06:27:29;;;;;;;8.87;6.70;;;22.50;82.60;;;;;;6211452;23;20412;-90
2021/05/13 06:29:55;;;;;;;7.63;5.70;;;23.00;79.80;;;;;;6206889;23;20476;-89
2021/05/13 06:32:22;;;;;;;8.00;5.80;;;23.30;76.70;;;;;;6197967;23;20413;-90
2021/05/13 06:34:48;;;;;;;6.30;5.70;;;23.30;75.90;;;;;;6194750;23;20507;-90
2021/05/13 06:37:14;;;;;;;5.50;5.00;;;23.50;74.50;;;;;;6211695;23;20505;-90
2021/05/13 06:39:41;;;;;;;9.00;5.60;;;23.60;75.10;;;;;;6208061;23;20390;-89
2021/05/13 06:42:08;;;;;;;6.43;5.60;;;23.90;72.20;;;;;;6210658;23;20932;-90
2021/05/13 06:44:35;;;;;;;6.10;5.23;;;23.80;72.00;;;;;;6203302;23;20474;-89
2021/05/13 06:47:03;;;;;;;6.43;5.73;;;23.70;71.20;;;;;;6207417;23;20525;-90
2021/05/13 06:49:29;;;;;;;5.90;5.30;;;23.90;70.40;;;;;;6193279;23;20421;-89
2021/05/13 06:51:55;;;;;;;6.63;5.53;;;24.50;70.90;;;;;;6190518;23;20409;-90
2021/05/13 06:54:22;;;;;;;5.10;4.60;;;24.60;69.30;;;;;;6191822;23;20414;-89
2021/05/13 06:56:48;;;;;;;4.70;3.87;;;24.70;67.40;;;;;;6190540;23;20414;-90
2021/05/13 06:59:15;;;;;;;5.47;4.70;;;25.10;65.50;;;;;;6193049;23;20405;-89
2021/05/13 07:01:42;;;;;;;5.47;4.93;;;25.00;64.70;;;;;;6198705;23;20506;-90
2021/05/13 07:04:09;;;;;;;5.53;5.03;;;24.90;65.60;;;;;;6213478;23;20413;-90
2021/05/13 07:06:37;;;;;;;5.50;4.33;;;25.20;64.60;;;;;;6193669;23;20436;-90
2021/05/13 07:09:04;;;;;;;5.00;3.90;;;25.70;62.10;;;;;;6187124;23;20467;-89
2021/05/13 07:11:30;;;;;;;3.50;3.20;;;26.00;59.30;;;;;;6188468;23;20798;-89
2021/05/13 07:13:56;;;;;;;5.10;4.47;;;26.30;59.10;;;;;;6192447;23;20474;-88
2021/05/13 07:16:22;;;;;;;6.13;3.70;;;26.70;57.80;;;;;;6187002;23;20432;-89
2021/05/13 07:18:50;;;;;;;4.00;3.70;;;27.20;57.70;;;;;;6187208;23;20418;-89
2021/05/13 07:21:17;;;;;;;4.93;3.20;;;27.80;55.40;;;;;;6187561;23;20470;-89
2021/05/13 07:23:43;;;;;;;5.07;3.10;;;27.90;53.50;;;;;;6186350;23;20448;-89
2021/05/13 07:26:11;;;;;;;3.17;2.80;;;28.00;52.10;;;;;;6185625;23;20428;-89
2021/05/13 07:28:38;;;;;;;4.73;3.10;;;28.30;51.40;;;;;;6187419;23;20405;-89
2021/05/13 07:31:05;;;;;;;8.33;4.07;;;28.30;51.60;;;;;;6185594;23;20472;-89
2021/05/13 07:33:31;;;;;;;2.90;2.33;;;28.50;51.40;;;;;;6187439;23;20421;-90
2021/05/13 07:36:00;;;;;;;4.87;2.40;;;28.90;49.10;;;;;;6189287;23;20852;-89
2021/05/13 07:38:26;;;;;;;7.43;3.53;;;29.10;53.00;;;;;;6186121;23;20489;-89
2021/05/13 07:40:53;;;;;;;3.60;2.60;;;29.40;66.20;;;;;;6186005;23;20438;-89
2021/05/13 07:43:21;;;;;;;2.53;1.83;;;29.50;65.50;;;;;;6186093;23;20448;-90
2021/05/13 07:45:48;;;;;;;3.10;1.50;;;29.90;57.50;;;;;;6186475;23;20445;-89
2021/05/13 07:48:14;;;;;;;1.83;1.47;;;29.90;57.00;;;;;;6192018;23;20800;-91
2021/05/13 07:50:41;;;;;;;2.70;2.30;;;30.30;57.80;;;;;;6190679;23;20418;-88
2021/05/13 07:53:09;;;;;;;3.40;2.10;;;30.20;49.10;;;;;;6190034;23;20433;-89
2021/05/13 07:55:37;;;;;;;2.10;1.83;;;30.40;47.80;;;;;;6187495;23;20921;-89
2021/05/13 07:58:03;;;;;;;2.50;2.10;;;30.80;43.00;;;;;;6187719;23;20513;-89
2021/05/13 08:00:31;;;;;;;5.63;2.33;;;31.50;41.20;;;;;;6187776;23;20484;-89
2021/05/13 08:02:58;;;;;;;3.37;2.80;;;31.80;41.60;;;;;;6190783;23;20437;-89
2021/05/13 08:05:24;;;;;;;4.60;2.83;;;30.30;41.60;;;;;;6191854;23;20438;-91
2021/05/13 08:07:51;;;;;;;3.00;2.50;;;30.40;42.40;;;;;;6203743;23;20410;-90
2021/05/13 08:10:18;;;;;;;5.50;3.30;;;30.50;42.00;;;;;;6192622;23;20414;-90
2021/05/13 08:12:44;;;;;;;2.93;2.23;;;31.00;43.70;;;;;;6190149;23;20416;-90
2021/05/13 08:15:13;;;;;;;3.30;2.50;;;30.80;42.10;;;;;;6188272;23;20458;-90
2021/05/13 08:17:39;;;;;;;5.23;2.50;;;29.80;42.60;;;;;;6188300;23;20441;-89
2021/05/13 08:20:08;;;;;;;2.80;2.50;;;29.40;43.40;;;;;;6188538;23;20417;-90
2021/05/13 08:22:34;;;;;;;2.47;2.10;;;29.70;43.30;;;;;;6190644;23;20452;-90
2021/05/13 08:25:01;;;;;;;2.70;1.93;;;29.00;43.80;;;;;;6211849;23;20402;-90
2021/05/13 08:27:30;;;;;;;3.73;2.17;;;28.70;42.70;;;;;;6205026;23;20877;-90
2021/05/13 08:29:56;;;;;;;2.10;1.90;;;29.70;42.40;;;;;;6189944;23;20414;-89
2021/05/13 08:32:23;;;;;;;2.80;2.30;;;30.20;40.90;;;;;;6189171;23;20410;-90
2021/05/13 08:34:50;;;;;;;2.30;2.03;;;31.10;40.40;;;;;;6190040;23;20418;-89
2021/05/13 08:37:17;;;;;;;4.13;3.13;;;31.30;40.10;;;;;;6193617;23;20433;-90
2021/05/13 08:39:45;;;;;;;2.77;2.17;;;30.00;40.30;;;;;;6192852;23;20425;-89
2021/05/13 08:42:12;;;;;;;3.20;2.50;;;28.00;43.00;;;;;;6196929;23;20523;-92
2021/05/13 08:44:41;;;;;;;3.87;2.00;;;26.50;44.70;;;;;;6194367;23;20740;-90
2021/05/13 08:47:09;;;;;;;2.50;2.13;;;25.50;47.50;;;;;;6196213;23;20485;-89
2021/05/13 08:49:36;;;;;;;4.67;3.17;;;25.00;48.90;;;;;;6195056;23;20444;-90
2021/05/13 08:52:15;;;;;;;4.97;2.37;;;25.80;49.10;;;;;;6190349;23;20433;-89
2021/05/13 08:54:51;;;;;;;4.53;2.10;;;25.70;46.90;;;;;;6197350;23;20484;-90
2021/05/13 08:57:17;;;;;;;3.33;2.57;;;26.50;47.00;;;;;;6205682;23;20388;-90
2021/05/13 08:59:44;;;;;;;2.90;1.93;;;26.70;45.80;;;;;;6199740;23;20460;-90
2021/05/13 09:02:11;;;;;;;3.07;2.10;;;26.70;46.30;;;;;;6213068;23;20528;-91
2021/05/13 09:04:39;;;;;;;1.97;1.80;;;26.30;46.40;;;;;;6214991;23;20382;-92
2021/05/13 09:07:27;;;;;;;2.47;2.10;;;26.70;46.10;;;;;;6210609;23;20491;-89
2021/05/13 09:10:02;;;;;;;5.70;2.40;;;28.30;44.10;;;;;;6214321;23;20457;-92
2021/05/13 09:12:30;;;;;;;3.23;2.63;;;29.70;42.10;;;;;;6192295;23;20403;-90
2021/05/13 09:15:00;;;;;;;3.03;1.90;;;29.60;41.90;;;;;;6189744;23;20537;-90
2021/05/13 09:17:28;;;;;;;2.53;1.90;;;30.30;40.10;;;;;;6190831;23;20440;-91
2021/05/13 09:19:59;;;;;;;2.40;2.00;;;31.10;38.80;;;;;;6201237;23;20413;-91
2021/05/13 09:22:30;;;;;;;3.17;1.90;;;31.30;38.40;;;;;;6204139;23;20461;-92
2021/05/13 09:24:58;;;;;;;3.63;2.23;;;31.30;37.30;;;;;;6204587;23;20390;-91
2021/05/13 09:27:31;;;;;;;2.50;2.30;;;29.80;38.70;;;;;;6201667;23;20409;-90
2021/05/13 09:30:06;;;;;;;3.00;2.00;;;28.90;40.30;;;;;;6201863;23;20378;-90
2021/05/13 09:32:33;;;;;;;2.80;2.33;;;28.00;41.50;;;;;;6204699;23;20398;-90
2021/05/13 09:35:06;;;;;;;3.30;1.90;;;26.80;43.00;;;;;;6195075;23;20406;-90
2021/05/13 09:37:40;;;;;;;3.07;2.03;;;26.10;45.50;;;;;;6194417;23;20825;-87
2021/05/13 09:40:08;;;;;;;1.87;1.63;;;25.60;46.60;;;;;;6189116;23;20409;-85
2021/05/13 09:42:35;;;;;;;2.63;2.10;;;24.90;47.40;;;;;;6190051;23;20445;-88
2021/05/13 09:45:03;;;;;;;4.30;2.70;;;24.30;48.80;;;;;;6194727;23;20460;-90
2021/05/13 09:47:29;;;;;;;4.00;3.37;;;23.80;49.20;;;;;;6203563;23;20484;-89
2021/05/13 09:50:02;;;;;;;2.70;2.37;;;23.50;50.10;;;;;;6213062;23;20456;-90
2021/05/13 09:52:45;;;;;;;5.47;1.90;;;23.50;49.80;;;;;;6212279;23;20415;-89
2021/05/13 09:55:14;;;;;;;4.43;2.10;;;22.70;58.40;;;;;;6203583;23;20457;-90
2021/05/13 09:57:41;;;;;;;2.50;2.30;;;22.90;59.30;;;;;;6213336;23;20399;-89
2021/05/13 10:00:10;;;;;;;3.03;2.17;;;22.70;59.10;;;;;;6215007;23;20414;-91
2021/05/13 10:02:38;;;;;;;3.90;2.30;;;22.90;59.70;;;;;;6214861;23;20501;-90
2021/05/13 10:05:05;;;;;;;2.43;1.80;;;23.20;59.60;;;;;;6213832;23;20453;-91
2021/05/13 10:07:32;;;;;;;3.50;2.37;;;23.90;58.60;;;;;;6213723;23;20399;-90
2021/05/13 10:09:58;;;;;;;2.67;2.43;;;24.30;57.20;;;;;;6208318;23;20880;-90
2021/05/13 10:12:33;;;;;;;2.80;2.07;;;24.90;56.00;;;;;;6195020;23;20408;-89
2021/05/13 10:15:04;;;;;;;3.17;2.00;;;24.10;55.10;;;;;;6212669;23;20408;-90
2021/05/13 10:17:33;;;;;;;4.70;2.27;;;24.20;56.30;;;;;;6213683;23;20457;-90
2021/05/13 10:20:14;;;;;;;2.27;1.93;;;24.20;56.10;;;;;;6213684;23;20405;-91
2021/05/13 10:22:46;;;;;;;2.33;1.70;;;24.00;56.70;;;;;;6213404;23;20433;-89
2021/05/13 10:25:26;;;;;;;2.43;2.23;;;23.80;56.50;;;;;;6204665;23;20455;-90
2021/05/13 10:28:02;;;;;;;3.27;1.87;;;23.40;56.60;;;;;;6194840;23;20856;-89
2021/05/13 10:30:55;;;;;;;2.53;1.70;;;23.10;57.20;;;;;;6192933;23;20795;-90
2021/05/13 10:33:58;;;;;;;2.03;1.43;;;22.80;58.30;;;;;;6195211;23;20411;-89
2021/05/13 10:36:54;;;;;;;3.70;1.80;;;22.80;58.90;;;;;;6190743;23;20776;-88
2021/05/13 10:39:32;;;;;;;2.60;1.60;;;22.60;58.60;;;;;;6192998;23;20456;-89
2021/05/13 10:42:19;;;;;;;4.20;1.90;;;22.60;59.10;;;;;;6192190;23;20421;-89
2021/05/13 10:44:46;;;;;;;4.17;1.50;;;22.40;60.10;;;;;;6191570;23;20419;-89
2021/05/13 10:47:36;;;;;;;2.30;1.67;;;22.30;65.70;;;;;;6191667;23;20462;-89
2021/05/13 10:50:15;;;;;;;2.30;1.73;;;22.30;63.80;;;;;;6191343;23;20426;-89
2021/05/13 10:52:59;;;;;;;3.13;1.20;;;22.40;64.90;;;;;;6190403;23;20907;-91
2021/05/13 10:55:38;;;;;;;3.03;1.60;;;22.40;65.20;;;;;;6194405;23;20587;-90
2021/05/13 10:58:09;;;;;;;2.67;1.40;;;22.40;66.70;;;;;;6190597;23;20500;-89
2021/05/13 11:00:36;;;;;;;3.00;1.40;;;22.40;71.40;;;;;;6189110;23;20807;-89
2021/05/13 11:03:20;;;;;;;3.90;2.07;;;22.50;63.80;;;;;;6187883;23;20446;-89
2021/05/13 11:05:58;;;;;;;5.33;1.67;;;22.80;51.90;;;;;;6188009;23;20440;-89
2021/05/13 11:08:29;;;;;;;3.93;1.67;;;23.40;53.20;;;;;;6184162;23;20431;-90
2021/05/13 11:10:58;;;;;;;2.80;1.47;;;23.60;52.80;;;;;;6205265;23;20854;-89
2021/05/13 11:13:51;;;;;;;5.87;1.77;;;24.00;57.20;;;;;;6188881;23;20396;-90
2021/05/13 11:19:38;;;;;;;4.33;2.00;;;24.00;58.60;;;;;;6166395;23;20437;-89
2021/05/13 11:22:08;;;;;;;3.63;1.80;;;24.00;57.80;;;;;;6203569;23;20451;-90
2021/05/13 11:31:32;;;;;;;4.80;2.60;;;23.90;56.50;;;;;;6123023;23;20409;-91
2021/05/13 11:34:30;;;;;;;3.40;1.60;;;24.10;59.50;;;;;;6189265;23;20406;-89
2021/05/13 11:41:02;;;;;;;7.60;3.40;;;24.80;54.20;;;;;;6047612;23;20416;-89
2021/05/13 11:47:03;;;;;;;4.73;2.47;;;23.50;54.00;;;;;;6126537;23;20416;-88
2021/05/13 11:49:43;;;;;;;2.97;1.30;;;22.90;54.60;;;;;;6187645;23;20477;-89
2021/05/13 11:52:34;;;;;;;4.40;1.33;;;22.60;55.00;;;;;;6190000;23;20477;-88
2021/05/13 11:55:32;;;;;;;5.10;3.33;;;22.20;59.00;;;;;;6203924;23;20398;-89
2021/05/13 11:58:19;;;;;;;6.80;4.37;;;21.70;69.00;;;;;;6208004;23;20407;-89
2021/05/13 12:00:45;;;;;;;4.43;2.20;;;21.50;56.70;;;;;;6192174;23;20460;-88
2021/05/13 12:03:15;;;;;;;2.37;1.20;;;21.40;55.20;;;;;;6189939;23;20956;-88
2021/05/13 12:05:49;;;;;;;2.23;1.50;;;21.40;54.10;;;;;;6187530;23;20406;-87
2021/05/13 12:08:17;;;;;;;2.57;1.70;;;21.30;53.20;;;;;;6185759;23;20397;-87
2021/05/13 12:10:44;;;;;;;2.97;2.37;;;21.10;53.60;;;;;;6184892;23;20410;-87
2021/05/13 12:13:11;;;;;;;2.03;1.30;;;21.00;54.80;;;;;;6189607;23;20413;-87
2021/05/13 12:15:37;;;;;;;3.53;2.37;;;20.90;54.50;;;;;;6189212;23;20409;-87
2021/05/13 12:18:04;;;;;;;2.00;1.47;;;20.80;54.40;;;;;;6187158;23;20908;-87
2021/05/13 12:20:32;;;;;;;2.57;1.57;;;21.20;55.00;;;;;;6196587;23;20436;-87
2021/05/13 12:22:59;;;;;;;6.57;5.03;;;21.70;54.20;;;;;;6189414;23;20441;-86
2021/05/13 12:25:26;;;;;;;6.13;5.53;;;22.10;54.90;;;;;;6187218;23;20466;-87
2021/05/13 12:27:52;;;;;;;2.63;1.83;;;22.30;54.40;;;;;;6188093;23;20410;-87
2021/05/13 12:30:20;;;;;;;3.13;1.40;;;22.60;52.40;;;;;;6194588;23;20418;-88
2021/05/13 12:32:47;;;;;;;1.90;1.33;;;23.30;51.30;;;;;;6193057;23;20842;-88
2021/05/13 12:35:29;;;;;;;3.40;1.90;;;23.80;49.80;;;;;;6188980;23;20419;-86
2021/05/13 12:38:12;;;;;;;3.47;2.17;;;24.30;52.90;;;;;;6188676;23;20407;-90
2021/05/13 12:40:39;;;;;;;1.40;1.20;;;26.30;47.00;;;;;;6198024;23;20476;-89
2021/05/13 12:43:10;;;;;;;1.83;1.53;;;27.20;44.40;;;;;;6205894;23;20425;-89
2021/05/13 12:45:46;;;;;;;4.37;2.87;;;27.00;42.90;;;;;;6193224;23;20604;-89
2021/05/13 12:48:20;;;;;;;3.00;2.00;;;26.20;44.20;;;;;;6195141;23;20522;-89
2021/05/13 12:50:59;;;;;;;3.13;2.83;;;25.50;45.70;;;;;;6191787;23;20438;-89
2021/05/13 12:53:26;;;;;;;13.70;11.93;;;25.80;45.30;;;;;;6212138;23;20394;-90
2021/05/13 12:55:53;;;;;;;3.63;2.77;;;26.60;44.50;;;;;;6197381;23;20881;-89
2021/05/13 12:58:20;;;;;;;4.00;2.70;;;28.50;40.50;;;;;;6204510;23;20455;-89
2021/05/13 13:00:55;;;;;;;4.93;2.50;;;30.40;39.00;;;;;;6196531;23;20430;-89
2021/05/13 13:03:30;;;;;;;6.17;5.57;;;32.40;37.30;;;;;;6193912;23;20443;-89
2021/05/13 13:06:06;;;;;;;5.47;4.53;;;33.70;33.60;;;;;;6198926;23;20386;-89
2021/05/13 13:08:40;;;;;;;9.40;7.53;;;32.10;34.60;;;;;;6191934;23;20436;-89